CDT,Max TemperatureF,Mean TemperatureF,Min TemperatureF,Max Dew PointF,MeanDew PointF,Min DewpointF,Max Humidity, Mean Humidity, Min Humidity, Max Sea Level PressureIn, Mean Sea Level PressureIn, Min Sea Level PressureIn, Max VisibilityMiles, Mean VisibilityMiles, Min VisibilityMiles, Max Wind SpeedMPH, Mean Wind SpeedMPH, Max Gust SpeedMPH,PrecipitationIn, CloudCover, Events, WindDirDegrees
2013-9-1,93,80,68,77,71,66,94,83,55,29.86,29.82,29.78,10,9,1,14,4,20,0.04,2,Thunderstorm,188
2013-9-2,84,74,64,68,65,61,100,76,48,29.95,29.90,29.85,10,8,0,7,2,,0.00,2,,346
2013-9-3,82,70,57,63,60,55,94,74,48,30.10,30.04,29.96,10,10,0,9,4,,0.00,2,,22
2013-9-4,82,68,53,63,57,50,100,74,39,30.18,30.14,30.09,10,8,1,8,1,,0.00,0,,28
2013-9-5,86,70,53,64,59,52,94,76,45,30.23,30.18,30.15,10,7,1,8,1,,0.00,0,,82
2013-9-6,89,72,55,66,62,54,100,74,40,30.21,30.14,30.07,10,8,2,9,2,,0.00,0,,118
2013-9-7,91,75,59,70,65,57,100,74,41,30.09,30.03,29.96,10,8,1,12,2,,0.00,0,,212
2013-9-8,87,76,66,75,70,64,94,84,62,30.02,29.97,29.93,10,10,5,8,0,,0.01,3,,98
2013-9-9,98,84,69,75,72,68,100,72,39,30.02,29.98,29.94,10,9,3,10,3,,0.00,2,Thunderstorm,187
2013-9-10,96,84,71,75,72,70,94,72,44,30.13,30.08,30.02,10,9,2,12,3,18,0.00,0,,183
2013-9-11,96,84,71,72,70,64,94,70,34,30.17,30.11,30.05,10,9,4,8,3,,0.00,1,,222
2013-9-12,86,76,66,70,64,48,94,68,42,30.09,30.04,29.98,10,10,7,9,3,,0.00,1,,339
2013-9-13,75,62,48,54,50,45,88,62,38,30.13,30.09,30.04,10,10,10,13,6,20,0.00,1,,20
2013-9-14,75,60,46,48,45,43,88,64,33,30.18,30.12,30.08,10,10,6,9,4,18,0.00,0,,45
2013-9-15,82,62,42,59,50,39,93,65,35,30.13,30.08,30.03,10,10,10,13,2,16,0.00,1,,195
2013-9-16,73,66,60,61,57,54,88,72,57,30.26,30.20,30.09,10,10,5,13,5,18,0.00,7,,22
2013-9-17,82,68,55,59,56,52,88,66,42,30.26,30.19,30.11,10,10,9,10,6,,0.00,3,,75
2013-9-18,87,74,60,72,66,57,94,79,55,30.14,30.08,30.01,10,8,2,13,3,,0.16,4,,137
2013-9-19,91,73,55,73,70,66,100,76,52,30.06,30.01,29.92,10,9,5,21,8,24,0.00,1,,189
2013-9-20,75,70,64,70,67,57,94,85,73,29.96,29.91,29.87,10,10,8,16,6,,0.20,6,,224
2013-9-21,71,60,50,57,50,46,94,69,43,29.95,29.91,29.88,10,10,7,12,3,18,0.00,0,,358
2013-9-22,75,58,44,52,48,41,93,72,38,30.03,29.98,29.94,10,10,4,9,2,,0.00,0,,45
2013-9-23,78,60,44,52,48,43,93,67,34,30.07,30.01,29.97,10,10,7,13,4,17,0.00,0,,66
2013-9-24,84,68,53,64,57,48,94,71,45,29.99,29.91,29.84,10,10,5,9,4,16,0.00,4,Thunderstorm,87
2013-9-25,84,70,57,64,61,55,94,79,45,29.90,29.86,29.82,10,7,0,12,2,,0.00,2,,60
2013-9-26,84,64,46,64,58,54,94,74,42,30.05,29.99,29.90,10,8,2,10,3,,0.00,1,,46
2013-9-27,84,55,26,59,54,43,100,67,37,30.16,30.09,30.05,10,8,1,10,2,,0.00,0,,111
2013-9-28,86,68,50,64,56,48,100,67,37,30.13,30.06,30.02,10,9,5,18,5,29,0.00,4,,180
2013-9-29,73,54,35,63,60,55,100,85,60,30.06,30.02,29.99,10,8,1,12,6,,0.35,6,,211
2013-9-30,75,62,50,64,62,61,94,86,69,30.02,29.99,29.95,10,7,2,13,3,,0.00,7,,162